AEN75A EDDH-MDPC
Flight info
| Callsign | AEN75A |
|---|---|
| Flight time | N/A |
| Altitude | 38000 |
| Route | WSN5G WSN N125 SILQI N872 PAM L980 IDRID M40 NILON L610 GILDA L620 GIBSO DCT TALIG/N0485F390 DCT TULTA/M085F380 DCT GONAN DCT 41N018W/M085F400 DCT BEKUN DCT VSM DCT 35N030W 32N040W 30N045W 25N055W DCT RKDIA/M085F430 M576 OBIKE/N0480F430 L335 MLIZA L204 COY A555 TUUNA RTE4 JOSHE RTE12 MAZ B892 ANTEX ANTEX1W |
| Aircraft | A359/H-SDE2E3GHIJ3J4J5LM1ORWXY/LB1D1 |
Departure
| Time | 2026-05-01 09:17 |
|---|---|
| Airport | Hamburg Helmut Schmidt Airport (EDDH) |
Arrival
| Time | N/A |
|---|---|
| Airport | Punta Cana International Airport (MDPC) |
| Time | Latitude | Longitude | Altitude | Speed | Heading |
|---|---|---|---|---|---|
| 2026-05-01 08:29 | 53.63105 | 10.00361 | 50 ft | 0 kts | 86° |
| 2026-05-01 08:32 | 53.63106 | 10.00387 | 50 ft | 0 kts | 86° |
| 2026-05-01 08:38 | 53.63105 | 10.00377 | 51 ft | 0 kts | 86° |
| 2026-05-01 08:39 | 53.63076 | 10.00367 | 53 ft | 0 kts | 99° |
| 2026-05-01 08:40 | 53.63106 | 10.00387 | 50 ft | 0 kts | 86° |
| 2026-05-01 09:05 | 53.63106 | 10.00348 | 52 ft | 4 kts | 99° |
| 2026-05-01 09:06 | 53.63113 | 10.00305 | 49 ft | 4 kts | 117° |
| 2026-05-01 09:06 | 53.63128 | 10.00268 | 49 ft | 4 kts | 134° |
| 2026-05-01 09:06 | 53.63149 | 10.00239 | 49 ft | 4 kts | 149° |
| 2026-05-01 09:06 | 53.63173 | 10.00220 | 49 ft | 4 kts | 166° |
| 2026-05-01 09:07 | 53.63186 | 10.00216 | 50 ft | 0 kts | 176° |
| 2026-05-01 09:11 | 53.63185 | 10.00216 | 57 ft | 2 kts | 176° |
| 2026-05-01 09:11 | 53.63144 | 10.00220 | 57 ft | 9 kts | 176° |
| 2026-05-01 09:11 | 53.63077 | 10.00219 | 51 ft | 10 kts | 195° |
| 2026-05-01 09:11 | 53.63009 | 10.00156 | 50 ft | 12 kts | 212° |
| 2026-05-01 09:12 | 53.62934 | 10.00076 | 52 ft | 14 kts | 210° |
| 2026-05-01 09:12 | 53.62843 | 10.00077 | 50 ft | 14 kts | 159° |
| 2026-05-01 09:12 | 53.62751 | 10.00152 | 49 ft | 15 kts | 153° |
| 2026-05-01 09:12 | 53.62656 | 10.00237 | 48 ft | 16 kts | 153° |
| 2026-05-01 09:13 | 53.62639 | 10.00252 | 50 ft | 1 kts | 153° |
| 2026-05-01 09:13 | 53.62604 | 10.00262 | 53 ft | 8 kts | 188° |
| 2026-05-01 09:13 | 53.62570 | 10.00207 | 51 ft | 0 kts | 239° |
| 2026-05-01 09:14 | 53.62570 | 10.00206 | 51 ft | 0 kts | 239° |
| 2026-05-01 09:14 | 53.62541 | 10.00108 | 49 ft | 19 kts | 254° |
| 2026-05-01 09:14 | 53.62555 | 10.00022 | 47 ft | 5 kts | 324° |
| 2026-05-01 09:14 | 53.62588 | 9.99988 | 49 ft | 6 kts | 330° |
| 2026-05-01 09:15 | 53.62618 | 9.99960 | 52 ft | 0 kts | 332° |
| 2026-05-01 09:16 | 53.62619 | 9.99959 | 52 ft | 3 kts | 332° |
| 2026-05-01 09:16 | 53.62747 | 9.99844 | 48 ft | 38 kts | 332° |
| 2026-05-01 09:16 | 53.63166 | 9.99486 | 50 ft | 99 kts | 333° |
| 2026-05-01 09:17 | 53.64984 | 9.97911 | 480 ft | 163 kts | 332° |
| 2026-05-01 09:17 | 53.65994 | 9.97003 | 1149 ft | 168 kts | 332° |
| 2026-05-01 09:17 | 53.68327 | 9.95040 | 1658 ft | 208 kts | 334° |
| 2026-05-01 09:18 | 53.69642 | 9.93932 | 2069 ft | 218 kts | 332° |
| 2026-05-01 09:18 | 53.71453 | 9.90027 | 3030 ft | 226 kts | 270° |
| 2026-05-01 09:19 | 53.70605 | 9.84560 | 3680 ft | 257 kts | 248° |
| 2026-05-01 09:19 | 53.69995 | 9.81685 | 4269 ft | 263 kts | 249° |
| 2026-05-01 09:19 | 53.69387 | 9.78738 | 4861 ft | 268 kts | 249° |
| 2026-05-01 09:20 | 53.68178 | 9.72723 | 6048 ft | 275 kts | 249° |
| 2026-05-01 09:20 | 53.66950 | 9.66510 | 7210 ft | 282 kts | 249° |
| 2026-05-01 09:21 | 53.65702 | 9.60201 | 8335 ft | 289 kts | 249° |
| 2026-05-01 09:21 | 53.64875 | 9.57113 | 8907 ft | 289 kts | 235° |
| 2026-05-01 09:21 | 53.62540 | 9.51526 | 10056 ft | 294 kts | 231° |
| 2026-05-01 09:22 | 53.60068 | 9.45824 | 10798 ft | 314 kts | 231° |
| 2026-05-01 09:22 | 53.57377 | 9.39598 | 11215 ft | 343 kts | 231° |
| 2026-05-01 09:23 | 53.55949 | 9.36285 | 11396 ft | 356 kts | 231° |
| 2026-05-01 09:23 | 53.53719 | 9.31116 | 11728 ft | 372 kts | 231° |
| 2026-05-01 09:24 | 53.52954 | 9.29340 | 11876 ft | 376 kts | 231° |
| 2026-05-01 09:24 | 53.52607 | 9.28536 | 11958 ft | 378 kts | 231° |
| 2026-05-01 09:24 | 53.50496 | 9.23647 | 12517 ft | 382 kts | 231° |
| 2026-05-01 09:25 | 53.47362 | 9.16424 | 13389 ft | 387 kts | 231° |
| 2026-05-01 09:25 | 53.44162 | 9.09069 | 14238 ft | 392 kts | 231° |
| 2026-05-01 09:26 | 53.42544 | 9.05359 | 14630 ft | 394 kts | 231° |
| 2026-05-01 09:26 | 53.39308 | 8.97953 | 15419 ft | 398 kts | 231° |
| 2026-05-01 09:26 | 53.37664 | 8.94200 | 15803 ft | 401 kts | 231° |
| 2026-05-01 09:27 | 53.34525 | 8.86437 | 16612 ft | 406 kts | 241° |
| 2026-05-01 09:27 | 53.33345 | 8.82113 | 17026 ft | 409 kts | 246° |
| 2026-05-01 09:27 | 53.32324 | 8.77654 | 17431 ft | 412 kts | 249° |
| 2026-05-01 09:28 | 53.31369 | 8.73116 | 17857 ft | 413 kts | 249° |
| 2026-05-01 09:28 | 53.30428 | 8.68567 | 18289 ft | 414 kts | 249° |
| 2026-05-01 09:28 | 53.29474 | 8.64006 | 18679 ft | 416 kts | 249° |
| 2026-05-01 09:28 | 53.28507 | 8.59437 | 18993 ft | 419 kts | 249° |
| 2026-05-01 09:29 | 53.26529 | 8.50286 | 19642 ft | 423 kts | 248° |
| 2026-05-01 09:29 | 53.25547 | 8.45651 | 19993 ft | 424 kts | 250° |
| 2026-05-01 09:30 | 53.23767 | 8.36173 | 20563 ft | 430 kts | 252° |
| 2026-05-01 09:30 | 53.22896 | 8.31384 | 20946 ft | 430 kts | 252° |
| 2026-05-01 09:30 | 53.21122 | 8.21766 | 21486 ft | 437 kts | 251° |
| 2026-05-01 09:31 | 53.20223 | 8.16996 | 21903 ft | 435 kts | 252° |
| 2026-05-01 09:31 | 53.19308 | 8.12184 | 22298 ft | 435 kts | 251° |
| 2026-05-01 09:31 | 53.17468 | 8.02460 | 22810 ft | 441 kts | 252° |
| 2026-05-01 09:32 | 53.16543 | 7.97565 | 23172 ft | 441 kts | 252° |
| 2026-05-01 09:32 | 53.14693 | 7.87793 | 23663 ft | 448 kts | 252° |
| 2026-05-01 09:32 | 53.13751 | 7.82842 | 24020 ft | 448 kts | 252° |
| 2026-05-01 09:33 | 53.12804 | 7.77877 | 24279 ft | 450 kts | 252° |
| 2026-05-01 09:33 | 53.11853 | 7.72908 | 24489 ft | 452 kts | 252° |
| 2026-05-01 09:33 | 53.09938 | 7.62925 | 25109 ft | 452 kts | 253° |
| 2026-05-01 09:34 | 53.08976 | 7.57928 | 25370 ft | 454 kts | 253° |
| 2026-05-01 09:34 | 53.08002 | 7.52907 | 25619 ft | 456 kts | 253° |
| 2026-05-01 09:34 | 53.06038 | 7.42843 | 26135 ft | 459 kts | 253° |
| 2026-05-01 09:35 | 53.05049 | 7.37785 | 26390 ft | 461 kts | 253° |
| 2026-05-01 09:35 | 53.03064 | 7.27674 | 26950 ft | 464 kts | 253° |
| 2026-05-01 09:35 | 53.02058 | 7.22566 | 27144 ft | 467 kts | 252° |
| 2026-05-01 09:36 | 53.01045 | 7.17428 | 27464 ft | 467 kts | 252° |
| 2026-05-01 09:36 | 53.00010 | 7.12285 | 27742 ft | 470 kts | 252° |
| 2026-05-01 09:36 | 52.98960 | 7.07142 | 28053 ft | 470 kts | 252° |
| 2026-05-01 09:36 | 52.97905 | 7.02003 | 28418 ft | 471 kts | 251° |
| 2026-05-01 09:37 | 52.96844 | 6.96847 | 28691 ft | 473 kts | 252° |
| 2026-05-01 09:37 | 52.94708 | 6.86476 | 29245 ft | 477 kts | 252° |
| 2026-05-01 09:37 | 52.93646 | 6.81324 | 29541 ft | 479 kts | 252° |
| 2026-05-01 09:38 | 52.91473 | 6.70811 | 30090 ft | 483 kts | 252° |
| 2026-05-01 09:38 | 52.90376 | 6.65528 | 30380 ft | 485 kts | 252° |
| 2026-05-01 09:38 | 52.89278 | 6.60249 | 30616 ft | 487 kts | 252° |
| 2026-05-01 09:39 | 52.87060 | 6.49634 | 31184 ft | 488 kts | 251° |
| 2026-05-01 09:39 | 52.85957 | 6.44380 | 31402 ft | 490 kts | 251° |
| 2026-05-01 09:39 | 52.84835 | 6.39045 | 31679 ft | 490 kts | 251° |
| 2026-05-01 09:40 | 52.83713 | 6.33729 | 32013 ft | 489 kts | 251° |
| 2026-05-01 09:40 | 52.81468 | 6.23104 | 32624 ft | 488 kts | 251° |
| 2026-05-01 09:40 | 52.80354 | 6.17872 | 32952 ft | 487 kts | 251° |
| 2026-05-01 09:41 | 52.79229 | 6.12603 | 33272 ft | 486 kts | 251° |
| 2026-05-01 09:41 | 52.76976 | 6.02084 | 33940 ft | 483 kts | 251° |
| 2026-05-01 09:41 | 52.75866 | 5.96885 | 34431 ft | 479 kts | 251° |
| 2026-05-01 09:42 | 52.74755 | 5.91703 | 34694 ft | 478 kts | 250° |
| 2026-05-01 09:42 | 52.73536 | 5.86584 | 34915 ft | 479 kts | 245° |
| 2026-05-01 09:42 | 52.70010 | 5.77371 | 35395 ft | 479 kts | 231° |
| 2026-05-01 09:43 | 52.65710 | 5.68991 | 35944 ft | 477 kts | 229° |
| 2026-05-01 09:43 | 52.63513 | 5.64901 | 36153 ft | 477 kts | 229° |
| 2026-05-01 09:43 | 52.61306 | 5.60822 | 36422 ft | 476 kts | 228° |
| 2026-05-01 09:44 | 52.57653 | 5.54056 | 36772 ft | 476 kts | 229° |
| 2026-05-01 09:44 | 52.55463 | 5.49985 | 37023 ft | 475 kts | 229° |
| 2026-05-01 09:44 | 52.53283 | 5.45926 | 37273 ft | 474 kts | 228° |
| 2026-05-01 09:45 | 52.51102 | 5.41862 | 37560 ft | 472 kts | 228° |
| 2026-05-01 09:45 | 52.46768 | 5.33798 | 37909 ft | 472 kts | 228° |
| 2026-05-01 09:45 | 52.44597 | 5.29757 | 38119 ft | 471 kts | 228° |
| 2026-05-01 09:46 | 52.42424 | 5.25729 | 38298 ft | 471 kts | 228° |
| 2026-05-01 09:46 | 52.40270 | 5.21745 | 38320 ft | 474 kts | 228° |
| 2026-05-01 09:46 | 52.35907 | 5.13577 | 38314 ft | 475 kts | 231° |
| 2026-05-01 09:47 | 52.32551 | 5.04266 | 38318 ft | 476 kts | 248° |
| 2026-05-01 09:47 | 52.30294 | 4.94149 | 38321 ft | 477 kts | 250° |
| 2026-05-01 09:48 | 52.28208 | 4.83825 | 38320 ft | 477 kts | 251° |
| 2026-05-01 09:48 | 52.26125 | 4.73534 | 38319 ft | 477 kts | 250° |
| 2026-05-01 09:49 | 52.24006 | 4.63271 | 38300 ft | 477 kts | 250° |
| 2026-05-01 09:49 | 52.21885 | 4.53107 | 38301 ft | 477 kts | 250° |
| 2026-05-01 09:50 | 52.19731 | 4.42874 | 38289 ft | 477 kts | 250° |
| 2026-05-01 09:50 | 52.17567 | 4.32646 | 38295 ft | 477 kts | 250° |
| 2026-05-01 09:51 | 52.15395 | 4.22422 | 38293 ft | 477 kts | 250° |
| 2026-05-01 09:51 | 52.13216 | 4.12205 | 38293 ft | 477 kts | 250° |
| 2026-05-01 09:52 | 52.11040 | 4.02058 | 38290 ft | 477 kts | 250° |
| 2026-05-01 09:52 | 52.08845 | 3.91872 | 38301 ft | 477 kts | 249° |
| 2026-05-01 09:53 | 52.06642 | 3.81692 | 38288 ft | 476 kts | 249° |
| 2026-05-01 09:53 | 52.04430 | 3.71511 | 38285 ft | 476 kts | 249° |
| 2026-05-01 09:54 | 52.02223 | 3.61438 | 38286 ft | 476 kts | 249° |
| 2026-05-01 09:54 | 52.00053 | 3.51262 | 38283 ft | 477 kts | 253° |
| 2026-05-01 09:55 | 51.98763 | 3.40687 | 38294 ft | 478 kts | 259° |
| 2026-05-01 09:55 | 51.97746 | 3.30071 | 38281 ft | 478 kts | 260° |
| 2026-05-01 09:56 | 51.96756 | 3.19385 | 38281 ft | 478 kts | 260° |
| 2026-05-01 09:56 | 51.95878 | 3.08740 | 38273 ft | 479 kts | 262° |
| 2026-05-01 09:57 | 51.95239 | 2.97975 | 38273 ft | 479 kts | 263° |
| 2026-05-01 09:57 | 51.94594 | 2.87216 | 38268 ft | 479 kts | 262° |
| 2026-05-01 09:58 | 51.93895 | 2.76459 | 38268 ft | 479 kts | 262° |
| 2026-05-01 09:58 | 51.93167 | 2.65713 | 38266 ft | 479 kts | 262° |
| 2026-05-01 09:59 | 51.92435 | 2.55035 | 38267 ft | 479 kts | 262° |
| 2026-05-01 09:59 | 51.91682 | 2.44283 | 38259 ft | 479 kts | 262° |
| 2026-05-01 10:00 | 51.90928 | 2.33615 | 38260 ft | 479 kts | 262° |
| 2026-05-01 10:00 | 51.90396 | 2.22858 | 38261 ft | 480 kts | 266° |
| 2026-05-01 10:01 | 51.90243 | 2.12041 | 38256 ft | 480 kts | 267° |
| 2026-05-01 10:01 | 51.90077 | 2.01227 | 38253 ft | 480 kts | 266° |
| 2026-05-01 10:02 | 51.89698 | 1.90428 | 38255 ft | 478 kts | 259° |
| 2026-05-01 10:02 | 51.88095 | 1.80116 | 38247 ft | 475 kts | 251° |
| 2026-05-01 10:03 | 51.86080 | 1.70067 | 38487 ft | 475 kts | 250° |
| 2026-05-01 10:03 | 51.85654 | 1.68017 | 38586 ft | 474 kts | 250° |
| 2026-05-01 10:04 | 51.85034 | 1.65046 | 38698 ft | 474 kts | 250° |
| 2026-05-01 10:04 | 51.84238 | 1.61230 | 38827 ft | 474 kts | 250° |
| 2026-05-01 10:04 | 51.83689 | 1.58603 | 38908 ft | 473 kts | 250° |
| 2026-05-01 10:05 | 51.82934 | 1.54975 | 39015 ft | 473 kts | 250° |
| 2026-05-01 10:05 | 51.80988 | 1.45597 | 39186 ft | 474 kts | 250° |
| 2026-05-01 10:06 | 51.78887 | 1.35465 | 39239 ft | 476 kts | 250° |
| 2026-05-01 10:06 | 51.76772 | 1.25309 | 39238 ft | 476 kts | 250° |
| 2026-05-01 10:07 | 51.74667 | 1.15249 | 39233 ft | 476 kts | 250° |
| 2026-05-01 10:07 | 51.72539 | 1.05131 | 39233 ft | 476 kts | 249° |
| 2026-05-01 10:08 | 51.68644 | 0.90486 | 39216 ft | 473 kts | 238° |
| 2026-05-01 10:09 | 51.65250 | 0.81448 | 39212 ft | 474 kts | 236° |
| 2026-05-01 10:09 | 51.62007 | 0.72192 | 39213 ft | 475 kts | 243° |
| 2026-05-01 10:10 | 51.60107 | 0.62037 | 39212 ft | 480 kts | 266° |
| 2026-05-01 10:10 | 51.60129 | 0.50967 | 39209 ft | 480 kts | 263° |
| 2026-05-01 10:11 | 51.59980 | 0.48548 | 39209 ft | 480 kts | 260° |
| 2026-05-01 10:11 | 51.58169 | 0.38319 | 39206 ft | 475 kts | 242° |
| 2026-05-01 10:12 | 51.55160 | 0.31041 | 39188 ft | 469 kts | 224° |
| 2026-05-01 10:12 | 51.48613 | 0.25316 | 39211 ft | 463 kts | 195° |
| 2026-05-01 10:13 | 51.45681 | 0.23191 | 39227 ft | 465 kts | 212° |
| 2026-05-01 10:13 | 51.43166 | 0.19898 | 39213 ft | 469 kts | 225° |
| 2026-05-01 10:13 | 51.41059 | 0.15993 | 39210 ft | 470 kts | 230° |
| 2026-05-01 10:14 | 51.35314 | 0.03175 | 39211 ft | 472 kts | 233° |
| 2026-05-01 10:14 | 51.31534 | -0.05444 | 39197 ft | 472 kts | 233° |
| 2026-05-01 10:15 | 51.27750 | -0.13860 | 39215 ft | 472 kts | 232° |
| 2026-05-01 10:15 | 51.23890 | -0.22328 | 39199 ft | 472 kts | 232° |
| 2026-05-01 10:16 | 51.20015 | -0.30787 | 39216 ft | 472 kts | 232° |
| 2026-05-01 10:17 | 51.14196 | -0.43452 | 39215 ft | 472 kts | 232° |
| 2026-05-01 10:17 | 51.08388 | -0.56052 | 39196 ft | 472 kts | 232° |
| 2026-05-01 10:18 | 51.05275 | -0.65275 | 39178 ft | 475 kts | 249° |
| 2026-05-01 10:18 | 51.04340 | -0.70331 | 39180 ft | 477 kts | 254° |
| 2026-05-01 10:19 | 51.02871 | -0.80637 | 39193 ft | 478 kts | 256° |
| 2026-05-01 10:19 | 51.01523 | -0.90935 | 39193 ft | 478 kts | 256° |
| 2026-05-01 10:20 | 50.99449 | -1.06433 | 39181 ft | 477 kts | 256° |
| 2026-05-01 10:20 | 50.98022 | -1.16725 | 39182 ft | 477 kts | 255° |
| 2026-05-01 10:21 | 50.95860 | -1.32156 | 39180 ft | 477 kts | 255° |
| 2026-05-01 10:22 | 50.93455 | -1.47410 | 39182 ft | 475 kts | 252° |
| 2026-05-01 10:23 | 50.90761 | -1.62543 | 39180 ft | 475 kts | 252° |
| 2026-05-01 10:23 | 50.88131 | -1.77628 | 39182 ft | 475 kts | 253° |
| 2026-05-01 10:24 | 50.84617 | -1.97790 | 39181 ft | 475 kts | 252° |
| 2026-05-01 10:25 | 50.81070 | -2.17913 | 39170 ft | 475 kts | 252° |
| 2026-05-01 10:26 | 50.79284 | -2.27953 | 39173 ft | 475 kts | 252° |
| 2026-05-01 10:27 | 50.75672 | -2.47967 | 39176 ft | 474 kts | 250° |
| 2026-05-01 10:28 | 50.71455 | -2.61987 | 39178 ft | 470 kts | 239° |
| 2026-05-01 10:28 | 50.66660 | -2.75443 | 39176 ft | 471 kts | 239° |
| 2026-05-01 10:29 | 50.61829 | -2.88919 | 39184 ft | 470 kts | 238° |
| 2026-05-01 10:30 | 50.55417 | -3.06792 | 39193 ft | 470 kts | 238° |
| 2026-05-01 10:31 | 50.49498 | -3.23188 | 39189 ft | 470 kts | 238° |
| 2026-05-01 10:32 | 50.44638 | -3.36571 | 39195 ft | 470 kts | 238° |
| 2026-05-01 10:33 | 50.38137 | -3.54361 | 39195 ft | 470 kts | 238° |
| 2026-05-01 10:34 | 50.33268 | -3.67605 | 39198 ft | 469 kts | 238° |
| 2026-05-01 10:34 | 50.30009 | -3.76433 | 39201 ft | 467 kts | 237° |
| 2026-05-01 10:35 | 50.25128 | -3.89599 | 39211 ft | 466 kts | 237° |
| 2026-05-01 10:35 | 50.21865 | -3.98361 | 39211 ft | 466 kts | 237° |
| 2026-05-01 10:36 | 50.16959 | -4.11480 | 39214 ft | 466 kts | 237° |
| 2026-05-01 10:37 | 50.13685 | -4.20203 | 39215 ft | 465 kts | 236° |
| 2026-05-01 10:37 | 50.08796 | -4.33167 | 39218 ft | 463 kts | 236° |
| 2026-05-01 10:38 | 50.05518 | -4.41825 | 39215 ft | 463 kts | 236° |
| 2026-05-01 10:38 | 50.02255 | -4.50412 | 39217 ft | 463 kts | 236° |
| 2026-05-01 10:39 | 49.98966 | -4.59043 | 39222 ft | 463 kts | 236° |
| 2026-05-01 10:39 | 49.95684 | -4.67627 | 39212 ft | 461 kts | 236° |
| 2026-05-01 10:40 | 49.92399 | -4.76187 | 39212 ft | 461 kts | 236° |
| 2026-05-01 10:40 | 49.89109 | -4.84734 | 39215 ft | 461 kts | 236° |
| 2026-05-01 10:41 | 49.85809 | -4.93277 | 39209 ft | 461 kts | 236° |
| 2026-05-01 10:42 | 49.80873 | -5.06006 | 39211 ft | 461 kts | 236° |
| 2026-05-01 10:42 | 49.77557 | -5.14524 | 39203 ft | 461 kts | 235° |
| 2026-05-01 10:43 | 49.74236 | -5.23024 | 39206 ft | 461 kts | 235° |
| 2026-05-01 10:43 | 49.70926 | -5.31471 | 39192 ft | 461 kts | 235° |
| 2026-05-01 10:44 | 49.67595 | -5.39944 | 39193 ft | 461 kts | 235° |
| 2026-05-01 10:44 | 49.64251 | -5.48422 | 39190 ft | 462 kts | 235° |
| 2026-05-01 10:45 | 49.60906 | -5.56874 | 39194 ft | 462 kts | 236° |
| 2026-05-01 10:45 | 49.57571 | -5.65276 | 39195 ft | 461 kts | 235° |
| 2026-05-01 10:46 | 49.54213 | -5.73711 | 39196 ft | 461 kts | 235° |
| 2026-05-01 10:46 | 49.50854 | -5.82117 | 39195 ft | 461 kts | 235° |
| 2026-05-01 10:47 | 49.47437 | -5.90471 | 39193 ft | 461 kts | 234° |
| 2026-05-01 10:47 | 49.43988 | -5.98784 | 39199 ft | 461 kts | 234° |
| 2026-05-01 10:48 | 49.40558 | -6.07047 | 39201 ft | 461 kts | 234° |
| 2026-05-01 10:48 | 49.37108 | -6.15358 | 39200 ft | 461 kts | 234° |
| 2026-05-01 10:49 | 49.33660 | -6.23644 | 39203 ft | 460 kts | 234° |
| 2026-05-01 10:49 | 49.30229 | -6.31868 | 39199 ft | 460 kts | 234° |
| 2026-05-01 10:50 | 49.26771 | -6.40127 | 39198 ft | 461 kts | 234° |
| 2026-05-01 10:50 | 49.23298 | -6.48396 | 39197 ft | 461 kts | 234° |
| 2026-05-01 10:51 | 49.19849 | -6.56582 | 39195 ft | 461 kts | 234° |
| 2026-05-01 10:51 | 49.16370 | -6.64813 | 39223 ft | 461 kts | 234° |
| 2026-05-01 10:52 | 49.12877 | -6.73054 | 39193 ft | 462 kts | 234° |
| 2026-05-01 10:52 | 49.09368 | -6.81304 | 39190 ft | 463 kts | 234° |
| 2026-05-01 10:53 | 49.05876 | -6.89493 | 39187 ft | 462 kts | 234° |
| 2026-05-01 10:53 | 49.02363 | -6.97704 | 39193 ft | 462 kts | 234° |
| 2026-05-01 10:54 | 48.98842 | -7.05908 | 39205 ft | 462 kts | 234° |
| 2026-05-01 10:54 | 48.95306 | -7.14120 | 39189 ft | 464 kts | 234° |
| 2026-05-01 10:55 | 48.91761 | -7.22330 | 39176 ft | 464 kts | 234° |
| 2026-05-01 10:55 | 48.88213 | -7.30523 | 39185 ft | 464 kts | 233° |
| 2026-05-01 10:56 | 48.84674 | -7.38671 | 39178 ft | 464 kts | 233° |
| 2026-05-01 10:56 | 48.81108 | -7.46853 | 39186 ft | 464 kts | 234° |
| 2026-05-01 10:57 | 48.77532 | -7.55032 | 39183 ft | 466 kts | 234° |
| 2026-05-01 10:57 | 48.73959 | -7.63183 | 39174 ft | 466 kts | 233° |
| 2026-05-01 10:58 | 48.70368 | -7.71349 | 39177 ft | 466 kts | 233° |
| 2026-05-01 10:58 | 48.66761 | -7.79527 | 39176 ft | 466 kts | 233° |
| 2026-05-01 10:59 | 48.63150 | -7.87688 | 39169 ft | 466 kts | 233° |
| 2026-05-01 10:59 | 48.59551 | -7.95799 | 39169 ft | 467 kts | 233° |
| 2026-05-01 11:00 | 48.55870 | -8.03883 | 39178 ft | 466 kts | 230° |
| 2026-05-01 11:00 | 48.51792 | -8.11478 | 39166 ft | 465 kts | 227° |
| 2026-05-01 11:01 | 48.47628 | -8.18950 | 39165 ft | 465 kts | 228° |
| 2026-05-01 11:01 | 48.43508 | -8.26483 | 39172 ft | 466 kts | 229° |
| 2026-05-01 11:02 | 48.39409 | -8.34077 | 39164 ft | 467 kts | 229° |
| 2026-05-01 11:02 | 48.35340 | -8.41624 | 39165 ft | 467 kts | 229° |
| 2026-05-01 11:03 | 48.31235 | -8.49213 | 39162 ft | 467 kts | 229° |
| 2026-05-01 11:03 | 48.27126 | -8.56782 | 39163 ft | 467 kts | 229° |
| 2026-05-01 11:04 | 48.23028 | -8.64305 | 39160 ft | 467 kts | 229° |
| 2026-05-01 11:04 | 48.18904 | -8.71857 | 39159 ft | 468 kts | 229° |
| 2026-05-01 11:05 | 48.14780 | -8.79387 | 39159 ft | 468 kts | 229° |
| 2026-05-01 11:05 | 48.10645 | -8.86916 | 39162 ft | 468 kts | 229° |
| 2026-05-01 11:06 | 48.06531 | -8.94385 | 39156 ft | 468 kts | 229° |
| 2026-05-01 11:06 | 48.02394 | -9.01878 | 39159 ft | 468 kts | 229° |
| 2026-05-01 11:07 | 47.96166 | -9.13116 | 39157 ft | 468 kts | 229° |
| 2026-05-01 11:07 | 47.92006 | -9.20595 | 39157 ft | 467 kts | 229° |
| 2026-05-01 11:08 | 47.87873 | -9.28008 | 39156 ft | 467 kts | 229° |
| 2026-05-01 11:09 | 47.81616 | -9.39188 | 39156 ft | 468 kts | 229° |
| 2026-05-01 11:09 | 47.77437 | -9.46630 | 39156 ft | 468 kts | 229° |
| 2026-05-01 11:10 | 47.71182 | -9.57732 | 39151 ft | 468 kts | 229° |
| 2026-05-01 11:10 | 47.66994 | -9.65138 | 39148 ft | 468 kts | 229° |
| 2026-05-01 11:11 | 47.62799 | -9.72539 | 39154 ft | 468 kts | 229° |
| 2026-05-01 11:11 | 47.58615 | -9.79898 | 39141 ft | 469 kts | 229° |
| 2026-05-01 11:12 | 47.54406 | -9.87282 | 39151 ft | 469 kts | 229° |
| 2026-05-01 11:12 | 47.50189 | -9.94658 | 39146 ft | 469 kts | 228° |
| 2026-05-01 11:13 | 47.45972 | -10.02017 | 39148 ft | 469 kts | 228° |
| 2026-05-01 11:13 | 47.41769 | -10.09329 | 39147 ft | 469 kts | 228° |
| 2026-05-01 11:14 | 47.37530 | -10.16686 | 39146 ft | 469 kts | 228° |
| 2026-05-01 11:14 | 47.33296 | -10.24013 | 39141 ft | 469 kts | 228° |
| 2026-05-01 11:15 | 47.29081 | -10.31287 | 39146 ft | 469 kts | 228° |
| 2026-05-01 11:15 | 47.24829 | -10.38606 | 39143 ft | 469 kts | 228° |
| 2026-05-01 11:16 | 47.20578 | -10.45903 | 39141 ft | 470 kts | 228° |
| 2026-05-01 11:16 | 47.17030 | -10.51978 | 39141 ft | 470 kts | 228° |
| 2026-05-01 11:17 | 47.12762 | -10.59270 | 39143 ft | 470 kts | 228° |
| 2026-05-01 11:17 | 47.08493 | -10.66542 | 39136 ft | 470 kts | 228° |
| 2026-05-01 11:18 | 47.04221 | -10.73799 | 39151 ft | 470 kts | 228° |
| 2026-05-01 11:18 | 46.99969 | -10.81005 | 39138 ft | 470 kts | 228° |
| 2026-05-01 11:19 | 46.95681 | -10.88252 | 39138 ft | 470 kts | 228° |
| 2026-05-01 11:19 | 46.91391 | -10.95482 | 39138 ft | 470 kts | 228° |
| 2026-05-01 11:20 | 46.87094 | -11.02707 | 39138 ft | 470 kts | 228° |
| 2026-05-01 11:20 | 46.82791 | -11.09920 | 39138 ft | 470 kts | 228° |
| 2026-05-01 11:21 | 46.78515 | -11.17070 | 39139 ft | 470 kts | 228° |
| 2026-05-01 11:21 | 46.74201 | -11.24264 | 39138 ft | 470 kts | 228° |
| 2026-05-01 11:22 | 46.69887 | -11.31439 | 39134 ft | 470 kts | 227° |
| 2026-05-01 11:22 | 46.65562 | -11.38614 | 39134 ft | 470 kts | 227° |
| 2026-05-01 11:23 | 46.61236 | -11.45773 | 39136 ft | 471 kts | 227° |
| 2026-05-01 11:23 | 46.56930 | -11.52879 | 39138 ft | 471 kts | 227° |
| 2026-05-01 11:24 | 46.52581 | -11.60037 | 39134 ft | 471 kts | 227° |
| 2026-05-01 11:25 | 46.46089 | -11.70687 | 39131 ft | 471 kts | 227° |
| 2026-05-01 11:25 | 46.39565 | -11.81348 | 39132 ft | 471 kts | 227° |
| 2026-05-01 11:26 | 46.33024 | -11.91996 | 39133 ft | 471 kts | 227° |
| 2026-05-01 11:27 | 46.28676 | -11.99050 | 39131 ft | 471 kts | 227° |
| 2026-05-01 11:27 | 46.24307 | -12.06120 | 39137 ft | 471 kts | 227° |
| 2026-05-01 11:28 | 46.19928 | -12.13189 | 39132 ft | 472 kts | 227° |
| 2026-05-01 11:28 | 46.15548 | -12.20240 | 39133 ft | 472 kts | 227° |
| 2026-05-01 11:29 | 46.08983 | -12.30776 | 39135 ft | 472 kts | 227° |
| 2026-05-01 11:30 | 46.02394 | -12.41309 | 39137 ft | 472 kts | 227° |
| 2026-05-01 11:30 | 45.97991 | -12.48325 | 39135 ft | 472 kts | 227° |
| 2026-05-01 11:31 | 45.93608 | -12.55291 | 39137 ft | 472 kts | 227° |
| 2026-05-01 11:31 | 45.89190 | -12.62295 | 39132 ft | 472 kts | 227° |
| 2026-05-01 11:32 | 45.84800 | -12.69238 | 39137 ft | 472 kts | 227° |
| 2026-05-01 11:32 | 45.80381 | -12.76207 | 39138 ft | 472 kts | 227° |
| 2026-05-01 11:33 | 45.75949 | -12.83180 | 39138 ft | 472 kts | 227° |
| 2026-05-01 11:33 | 45.71516 | -12.90137 | 39138 ft | 472 kts | 227° |
| 2026-05-01 11:34 | 45.67111 | -12.97032 | 39135 ft | 472 kts | 227° |
| 2026-05-01 11:34 | 45.62661 | -13.03980 | 39137 ft | 473 kts | 227° |
| 2026-05-01 11:35 | 45.58237 | -13.10870 | 39135 ft | 473 kts | 226° |
| 2026-05-01 11:35 | 45.53781 | -13.17794 | 39140 ft | 473 kts | 226° |
| 2026-05-01 11:36 | 45.49324 | -13.24699 | 39142 ft | 473 kts | 226° |
| 2026-05-01 11:36 | 45.44863 | -13.31595 | 39146 ft | 473 kts | 226° |
| 2026-05-01 11:37 | 45.40397 | -13.38480 | 39135 ft | 473 kts | 226° |
| 2026-05-01 11:37 | 45.35951 | -13.45319 | 39141 ft | 473 kts | 226° |
| 2026-05-01 11:38 | 45.31472 | -13.52190 | 39143 ft | 473 kts | 226° |
| 2026-05-01 11:38 | 45.26986 | -13.59055 | 39143 ft | 473 kts | 226° |
| 2026-05-01 11:39 | 45.22528 | -13.65861 | 39146 ft | 474 kts | 226° |
| 2026-05-01 11:39 | 45.18035 | -13.72703 | 39143 ft | 474 kts | 226° |
| 2026-05-01 11:40 | 45.13528 | -13.79548 | 39143 ft | 474 kts | 226° |
| 2026-05-01 11:40 | 45.09028 | -13.86367 | 39143 ft | 474 kts | 226° |
| 2026-05-01 11:41 | 45.04515 | -13.93188 | 39148 ft | 474 kts | 226° |
| 2026-05-01 11:41 | 44.99906 | -13.99870 | 39143 ft | 474 kts | 220° |
| 2026-05-01 11:42 | 44.94814 | -14.05683 | 39141 ft | 474 kts | 218° |
| 2026-05-01 11:42 | 44.89566 | -14.11374 | 39146 ft | 474 kts | 217° |
| 2026-05-01 11:43 | 44.84323 | -14.17004 | 39144 ft | 473 kts | 217° |
| 2026-05-01 11:43 | 44.79091 | -14.22629 | 39149 ft | 474 kts | 217° |
| 2026-05-01 11:44 | 44.71219 | -14.31093 | 39146 ft | 475 kts | 217° |
| 2026-05-01 11:44 | 44.65971 | -14.36722 | 39145 ft | 474 kts | 217° |
| 2026-05-01 11:45 | 44.60725 | -14.42336 | 39148 ft | 474 kts | 217° |
| 2026-05-01 11:45 | 44.55482 | -14.47931 | 39151 ft | 474 kts | 217° |
| 2026-05-01 11:46 | 44.50255 | -14.53498 | 39146 ft | 475 kts | 217° |
| 2026-05-01 11:46 | 44.44980 | -14.59102 | 39145 ft | 475 kts | 217° |
| 2026-05-01 11:47 | 44.39708 | -14.64691 | 39145 ft | 474 kts | 217° |
| 2026-05-01 11:47 | 44.34490 | -14.70208 | 39146 ft | 473 kts | 217° |
| 2026-05-01 11:48 | 44.29222 | -14.75766 | 39150 ft | 475 kts | 217° |
| 2026-05-01 11:48 | 44.23937 | -14.81331 | 39148 ft | 475 kts | 217° |
| 2026-05-01 11:49 | 44.18679 | -14.86852 | 39147 ft | 475 kts | 217° |
| 2026-05-01 11:49 | 44.13408 | -14.92376 | 39146 ft | 474 kts | 217° |
| 2026-05-01 11:50 | 44.08119 | -14.97905 | 39151 ft | 474 kts | 217° |
| 2026-05-01 11:50 | 44.02826 | -15.03425 | 39144 ft | 476 kts | 216° |
| 2026-05-01 11:51 | 43.97557 | -15.08910 | 39139 ft | 476 kts | 216° |
| 2026-05-01 11:51 | 43.92247 | -15.14423 | 39143 ft | 476 kts | 216° |
| 2026-05-01 11:52 | 43.86942 | -15.19919 | 39140 ft | 475 kts | 216° |
| 2026-05-01 11:52 | 43.81639 | -15.25399 | 39141 ft | 475 kts | 216° |
| 2026-05-01 11:53 | 43.76333 | -15.30871 | 39141 ft | 475 kts | 216° |
| 2026-05-01 11:53 | 43.71050 | -15.36306 | 39140 ft | 475 kts | 216° |
| 2026-05-01 11:54 | 43.65734 | -15.41764 | 39141 ft | 475 kts | 216° |
| 2026-05-01 11:54 | 43.60427 | -15.47200 | 39138 ft | 476 kts | 216° |
| 2026-05-01 11:55 | 43.55100 | -15.52644 | 39133 ft | 475 kts | 216° |
| 2026-05-01 11:55 | 43.49776 | -15.58073 | 39135 ft | 475 kts | 216° |
| 2026-05-01 11:56 | 43.44486 | -15.63455 | 39132 ft | 475 kts | 216° |
| 2026-05-01 11:56 | 43.39146 | -15.68876 | 39130 ft | 476 kts | 216° |
| 2026-05-01 11:57 | 43.34704 | -15.73376 | 39127 ft | 477 kts | 216° |
| 2026-05-01 11:57 | 43.28489 | -15.79657 | 39126 ft | 476 kts | 216° |
| 2026-05-01 11:58 | 43.23133 | -15.85058 | 39126 ft | 476 kts | 216° |
| 2026-05-01 11:59 | 43.15148 | -15.93088 | 39124 ft | 476 kts | 216° |
| 2026-05-01 11:59 | 43.09806 | -15.98445 | 39124 ft | 476 kts | 216° |
| 2026-05-01 12:00 | 43.01776 | -16.06474 | 39121 ft | 476 kts | 216° |
| 2026-05-01 12:01 | 42.93741 | -16.14483 | 39117 ft | 476 kts | 216° |
| 2026-05-01 12:01 | 42.88380 | -16.19811 | 39116 ft | 476 kts | 216° |
| 2026-05-01 12:02 | 42.83020 | -16.25128 | 39113 ft | 476 kts | 216° |
| 2026-05-01 12:02 | 42.77696 | -16.30395 | 39111 ft | 475 kts | 216° |
| 2026-05-01 12:03 | 42.72335 | -16.35690 | 39106 ft | 475 kts | 216° |
| 2026-05-01 12:03 | 42.67877 | -16.40083 | 39105 ft | 477 kts | 216° |
| 2026-05-01 12:04 | 42.63411 | -16.44477 | 39099 ft | 477 kts | 216° |
| 2026-05-01 12:04 | 42.62110 | -16.45755 | 39099 ft | 477 kts | 216° |
| 2026-05-01 12:05 | 42.56736 | -16.51027 | 39102 ft | 476 kts | 216° |
| 2026-05-01 12:05 | 42.48670 | -16.58921 | 39099 ft | 476 kts | 216° |
| 2026-05-01 12:06 | 42.43328 | -16.64134 | 39097 ft | 476 kts | 216° |
| 2026-05-01 12:06 | 42.37946 | -16.69375 | 39096 ft | 476 kts | 216° |
| 2026-05-01 12:07 | 42.32564 | -16.74604 | 39094 ft | 476 kts | 216° |
| 2026-05-01 12:07 | 42.27166 | -16.79838 | 39091 ft | 477 kts | 216° |
| 2026-05-01 12:08 | 42.21779 | -16.85051 | 39093 ft | 477 kts | 216° |
| 2026-05-01 12:08 | 42.16404 | -16.90241 | 39081 ft | 477 kts | 216° |
| 2026-05-01 12:09 | 42.11005 | -16.95442 | 39086 ft | 475 kts | 216° |
| 2026-05-01 12:09 | 42.05617 | -17.00621 | 39086 ft | 475 kts | 216° |
| 2026-05-01 12:10 | 41.97566 | -17.08341 | 39085 ft | 476 kts | 216° |
| 2026-05-01 12:11 | 41.89453 | -17.16095 | 39080 ft | 476 kts | 216° |
| 2026-05-01 12:11 | 41.84076 | -17.21221 | 39075 ft | 476 kts | 216° |
| 2026-05-01 12:12 | 41.78686 | -17.26348 | 39075 ft | 476 kts | 216° |
| 2026-05-01 12:12 | 41.73276 | -17.31484 | 39072 ft | 476 kts | 216° |
| 2026-05-01 12:13 | 41.67898 | -17.36577 | 39067 ft | 476 kts | 216° |
| 2026-05-01 12:13 | 41.62480 | -17.41699 | 39221 ft | 476 kts | 216° |
| 2026-05-01 12:14 | 41.57055 | -17.46816 | 39472 ft | 476 kts | 216° |
| 2026-05-01 12:14 | 41.54382 | -17.49334 | 39596 ft | 476 kts | 216° |
| 2026-05-01 12:14 | 41.51674 | -17.51882 | 39705 ft | 476 kts | 216° |
| 2026-05-01 12:15 | 41.48960 | -17.54432 | 39814 ft | 476 kts | 216° |
| 2026-05-01 12:15 | 41.46248 | -17.56979 | 39927 ft | 476 kts | 216° |
| 2026-05-01 12:15 | 41.43533 | -17.59525 | 40029 ft | 476 kts | 216° |
| 2026-05-01 12:15 | 41.40815 | -17.62072 | 40078 ft | 477 kts | 216° |
| 2026-05-01 12:16 | 41.35379 | -17.67156 | 40069 ft | 477 kts | 216° |
| 2026-05-01 12:16 | 41.29942 | -17.72232 | 40063 ft | 477 kts | 216° |
| 2026-05-01 12:17 | 41.24544 | -17.77260 | 40064 ft | 477 kts | 216° |
| 2026-05-01 12:17 | 41.19092 | -17.82328 | 40063 ft | 478 kts | 216° |
| 2026-05-01 12:18 | 41.13647 | -17.87380 | 40065 ft | 477 kts | 216° |
| 2026-05-01 12:18 | 41.08203 | -17.92420 | 40061 ft | 477 kts | 216° |
| 2026-05-01 12:19 | 41.02772 | -17.97483 | 40054 ft | 476 kts | 219° |
| 2026-05-01 12:19 | 40.98122 | -18.03608 | 40063 ft | 473 kts | 233° |
| 2026-05-01 12:20 | 40.94199 | -18.10620 | 40052 ft | 473 kts | 236° |
| 2026-05-01 12:20 | 40.90407 | -18.17744 | 40057 ft | 473 kts | 236° |
| 2026-05-01 12:21 | 40.86613 | -18.24857 | 40052 ft | 473 kts | 236° |
| 2026-05-01 12:21 | 40.82812 | -18.31914 | 40052 ft | 473 kts | 235° |
| 2026-05-01 12:22 | 40.78976 | -18.38991 | 40051 ft | 473 kts | 235° |
| 2026-05-01 12:22 | 40.75138 | -18.46053 | 40051 ft | 473 kts | 235° |
| 2026-05-01 12:23 | 40.71294 | -18.53109 | 40052 ft | 473 kts | 235° |
| 2026-05-01 12:23 | 40.67445 | -18.60162 | 40047 ft | 474 kts | 235° |
| 2026-05-01 12:24 | 40.63617 | -18.67161 | 40049 ft | 473 kts | 235° |
| 2026-05-01 12:24 | 40.59769 | -18.74182 | 40047 ft | 472 kts | 235° |
| 2026-05-01 12:25 | 40.53991 | -18.84694 | 40043 ft | 472 kts | 235° |
| 2026-05-01 12:26 | 40.50151 | -18.91658 | 40044 ft | 472 kts | 235° |
| 2026-05-01 12:26 | 40.44356 | -19.02141 | 40041 ft | 473 kts | 235° |
| 2026-05-01 12:27 | 40.38551 | -19.12607 | 40028 ft | 472 kts | 235° |
| 2026-05-01 12:28 | 40.32732 | -19.23061 | 40033 ft | 472 kts | 235° |
| 2026-05-01 12:29 | 40.26938 | -19.33439 | 40034 ft | 471 kts | 235° |
| 2026-05-01 12:29 | 40.21113 | -19.43837 | 40028 ft | 472 kts | 235° |
| 2026-05-01 12:30 | 40.15296 | -19.54185 | 40026 ft | 472 kts | 235° |
| 2026-05-01 12:31 | 40.11400 | -19.61097 | 40028 ft | 472 kts | 235° |
| 2026-05-01 12:31 | 40.07501 | -19.68000 | 40024 ft | 472 kts | 235° |
| 2026-05-01 12:32 | 40.03625 | -19.74846 | 40021 ft | 471 kts | 235° |
| 2026-05-01 12:32 | 39.97782 | -19.85139 | 40017 ft | 470 kts | 236° |
| 2026-05-01 12:33 | 39.93885 | -19.91984 | 40021 ft | 470 kts | 236° |
| 2026-05-01 12:33 | 39.89983 | -19.98826 | 40017 ft | 470 kts | 236° |
| 2026-05-01 12:34 | 39.86101 | -20.05616 | 40017 ft | 470 kts | 235° |
| 2026-05-01 12:34 | 39.82191 | -20.12441 | 40018 ft | 470 kts | 235° |
| 2026-05-01 12:35 | 39.78277 | -20.19257 | 40017 ft | 470 kts | 236° |
| 2026-05-01 12:35 | 39.74363 | -20.26059 | 40021 ft | 470 kts | 236° |
| 2026-05-01 12:36 | 39.70473 | -20.32805 | 40022 ft | 468 kts | 236° |
| 2026-05-01 12:36 | 39.66562 | -20.39572 | 40006 ft | 468 kts | 236° |
| 2026-05-01 12:37 | 39.62650 | -20.46328 | 40022 ft | 467 kts | 236° |
| 2026-05-01 12:37 | 39.58733 | -20.53079 | 40017 ft | 468 kts | 236° |
| 2026-05-01 12:38 | 39.54843 | -20.59767 | 40012 ft | 468 kts | 236° |
| 2026-05-01 12:38 | 39.50915 | -20.66508 | 40019 ft | 468 kts | 236° |
| 2026-05-01 12:39 | 39.46978 | -20.73249 | 40019 ft | 468 kts | 236° |
| 2026-05-01 12:39 | 39.43072 | -20.79922 | 40010 ft | 467 kts | 236° |
| 2026-05-01 12:40 | 39.39143 | -20.86618 | 40017 ft | 466 kts | 236° |
| 2026-05-01 12:40 | 39.35213 | -20.93306 | 40018 ft | 466 kts | 236° |
| 2026-05-01 12:41 | 39.31308 | -20.99939 | 40018 ft | 466 kts | 236° |
| 2026-05-01 12:41 | 39.27372 | -21.06607 | 40018 ft | 466 kts | 236° |
| 2026-05-01 12:42 | 39.23430 | -21.13272 | 40018 ft | 466 kts | 236° |
| 2026-05-01 12:42 | 39.19486 | -21.19926 | 40019 ft | 466 kts | 236° |
| 2026-05-01 12:43 | 39.15546 | -21.26560 | 40016 ft | 466 kts | 236° |
| 2026-05-01 12:43 | 39.11628 | -21.33144 | 40014 ft | 465 kts | 236° |
| 2026-05-01 12:44 | 39.07691 | -21.39746 | 40018 ft | 464 kts | 236° |
| 2026-05-01 12:45 | 38.99815 | -21.52914 | 40023 ft | 463 kts | 236° |
| 2026-05-01 12:45 | 38.95905 | -21.59429 | 40024 ft | 462 kts | 236° |
| 2026-05-01 12:46 | 38.91972 | -21.65971 | 40024 ft | 462 kts | 236° |
| 2026-05-01 12:46 | 38.88035 | -21.72505 | 40023 ft | 462 kts | 236° |
| 2026-05-01 12:47 | 38.84093 | -21.79036 | 40023 ft | 462 kts | 236° |
| 2026-05-01 12:47 | 38.80157 | -21.85543 | 40009 ft | 461 kts | 236° |
| 2026-05-01 12:48 | 38.76257 | -21.91974 | 40027 ft | 457 kts | 235° |
| 2026-05-01 12:48 | 38.72359 | -21.98392 | 40028 ft | 456 kts | 235° |
| 2026-05-01 12:49 | 38.68451 | -22.04814 | 40028 ft | 457 kts | 235° |
| 2026-05-01 12:49 | 38.64541 | -22.11229 | 40027 ft | 457 kts | 235° |
| 2026-05-01 12:50 | 38.60649 | -22.17599 | 40029 ft | 457 kts | 235° |
| 2026-05-01 12:50 | 38.56731 | -22.23999 | 40028 ft | 457 kts | 235° |
| 2026-05-01 12:51 | 38.53470 | -22.29316 | 40032 ft | 457 kts | 235° |
| 2026-05-01 12:52 | 38.47589 | -22.38882 | 40032 ft | 456 kts | 235° |
| 2026-05-01 12:52 | 38.41698 | -22.48437 | 40034 ft | 456 kts | 235° |
| 2026-05-01 12:53 | 38.35803 | -22.57970 | 40033 ft | 456 kts | 235° |
| 2026-05-01 12:54 | 38.31863 | -22.64326 | 40033 ft | 456 kts | 235° |
| 2026-05-01 12:54 | 38.25978 | -22.73797 | 40038 ft | 456 kts | 235° |
| 2026-05-01 12:55 | 38.20065 | -22.83286 | 40040 ft | 455 kts | 235° |
| 2026-05-01 12:56 | 38.16142 | -22.89565 | 40035 ft | 454 kts | 235° |
| 2026-05-01 12:56 | 38.12219 | -22.95832 | 40045 ft | 452 kts | 235° |
| 2026-05-01 12:57 | 38.08300 | -23.02081 | 40048 ft | 452 kts | 235° |
| 2026-05-01 12:57 | 38.02431 | -23.11420 | 40036 ft | 451 kts | 234° |
| 2026-05-01 12:58 | 37.98530 | -23.17612 | 40051 ft | 451 kts | 234° |
| 2026-05-01 12:59 | 37.92981 | -23.27203 | 40051 ft | 448 kts | 240° |
| 2026-05-01 12:59 | 37.87981 | -23.37220 | 40058 ft | 448 kts | 240° |
| 2026-05-01 13:00 | 37.83038 | -23.47192 | 40044 ft | 448 kts | 240° |
| 2026-05-01 13:01 | 37.78059 | -23.57161 | 40062 ft | 446 kts | 240° |
| 2026-05-01 13:02 | 37.73073 | -23.67104 | 40064 ft | 446 kts | 240° |
| 2026-05-01 13:07 | 37.36139 | -24.39872 | 40065 ft | 451 kts | 239° |
| 2026-05-01 13:08 | 37.32729 | -24.46511 | 40064 ft | 452 kts | 239° |
| 2026-05-01 13:08 | 37.29332 | -24.53110 | 40067 ft | 452 kts | 239° |
| 2026-05-01 13:09 | 37.25916 | -24.59734 | 40084 ft | 452 kts | 239° |
| 2026-05-01 13:09 | 37.22494 | -24.66356 | 40085 ft | 452 kts | 239° |
| 2026-05-01 13:10 | 37.19066 | -24.72978 | 40076 ft | 452 kts | 238° |
| 2026-05-01 13:10 | 37.15633 | -24.79595 | 40077 ft | 454 kts | 238° |
| 2026-05-01 13:11 | 37.12183 | -24.86232 | 40064 ft | 454 kts | 238° |
| 2026-05-01 13:11 | 37.08731 | -24.92860 | 40081 ft | 454 kts | 238° |
| 2026-05-01 13:12 | 37.05303 | -24.99427 | 40074 ft | 453 kts | 238° |
| 2026-05-01 13:12 | 37.01855 | -25.06022 | 40072 ft | 452 kts | 238° |
| 2026-05-01 13:13 | 36.98397 | -25.12622 | 40071 ft | 452 kts | 238° |
| 2026-05-01 13:13 | 36.95263 | -25.19432 | 40072 ft | 451 kts | 245° |
| 2026-05-01 13:14 | 36.92554 | -25.26455 | 40077 ft | 451 kts | 246° |
| 2026-05-01 13:14 | 36.89887 | -25.33557 | 40082 ft | 451 kts | 246° |
| 2026-05-01 13:15 | 36.87212 | -25.40665 | 40082 ft | 451 kts | 246° |
| 2026-05-01 13:15 | 36.84531 | -25.47742 | 40080 ft | 451 kts | 245° |
| 2026-05-01 13:16 | 36.81852 | -25.54784 | 40084 ft | 451 kts | 245° |
| 2026-05-01 13:16 | 36.79149 | -25.61871 | 40083 ft | 451 kts | 245° |
| 2026-05-01 13:17 | 36.73738 | -25.76013 | 40087 ft | 452 kts | 245° |
| 2026-05-01 13:18 | 36.69678 | -25.86583 | 40087 ft | 452 kts | 245° |
| 2026-05-01 13:18 | 36.66958 | -25.93646 | 40083 ft | 452 kts | 245° |
| 2026-05-01 13:19 | 36.64227 | -26.00719 | 40084 ft | 452 kts | 245° |
| 2026-05-01 13:20 | 36.60143 | -26.11270 | 40086 ft | 452 kts | 245° |
| 2026-05-01 13:20 | 36.57402 | -26.18330 | 40089 ft | 452 kts | 245° |
| 2026-05-01 13:21 | 36.53308 | -26.28846 | 40085 ft | 451 kts | 245° |
| 2026-05-01 13:21 | 36.50557 | -26.35895 | 40089 ft | 451 kts | 245° |
| 2026-05-01 13:22 | 36.47813 | -26.42909 | 40089 ft | 451 kts | 245° |
| 2026-05-01 13:22 | 36.45076 | -26.49889 | 40089 ft | 451 kts | 245° |
| 2026-05-01 13:23 | 36.42320 | -26.56903 | 40085 ft | 451 kts | 245° |
| 2026-05-01 13:23 | 36.39574 | -26.63878 | 40089 ft | 452 kts | 245° |
| 2026-05-01 13:24 | 36.36806 | -26.70890 | 40089 ft | 452 kts | 245° |
| 2026-05-01 13:25 | 36.32644 | -26.81408 | 40091 ft | 452 kts | 245° |
| 2026-05-01 13:25 | 36.29863 | -26.88416 | 40090 ft | 452 kts | 245° |
| 2026-05-01 13:26 | 36.27096 | -26.95373 | 40091 ft | 453 kts | 245° |
| 2026-05-01 13:26 | 36.24306 | -27.02372 | 40091 ft | 453 kts | 245° |
| 2026-05-01 13:27 | 36.21510 | -27.09372 | 40091 ft | 453 kts | 245° |
| 2026-05-01 13:27 | 36.17310 | -27.19859 | 40090 ft | 453 kts | 245° |
| 2026-05-01 13:28 | 36.13118 | -27.30293 | 40089 ft | 453 kts | 245° |
| 2026-05-01 13:29 | 36.07506 | -27.44206 | 40091 ft | 453 kts | 245° |
| 2026-05-01 13:31 | 35.99036 | -27.65095 | 40080 ft | 453 kts | 245° |
| 2026-05-01 13:32 | 35.91972 | -27.82413 | 40087 ft | 451 kts | 244° |
| 2026-05-01 13:33 | 35.84896 | -27.99672 | 40088 ft | 452 kts | 244° |
| 2026-05-01 13:34 | 35.79219 | -28.13450 | 40088 ft | 452 kts | 244° |
| 2026-05-01 13:35 | 35.74934 | -28.23814 | 40086 ft | 452 kts | 244° |
| 2026-05-01 13:36 | 35.70664 | -28.34109 | 40087 ft | 452 kts | 244° |
| 2026-05-01 13:36 | 35.66356 | -28.44460 | 40086 ft | 452 kts | 244° |
| 2026-05-01 13:37 | 35.63970 | -28.50181 | 40084 ft | 452 kts | 244° |
| 2026-05-01 13:37 | 35.60629 | -28.58175 | 40090 ft | 452 kts | 244° |
| 2026-05-01 13:38 | 35.56316 | -28.68464 | 40081 ft | 452 kts | 244° |
| 2026-05-01 13:39 | 35.53918 | -28.74172 | 40081 ft | 451 kts | 244° |
| 2026-05-01 13:39 | 35.51017 | -28.81063 | 40084 ft | 451 kts | 244° |
| 2026-05-01 13:40 | 35.48133 | -28.87899 | 40085 ft | 451 kts | 244° |
| 2026-05-01 13:40 | 35.45264 | -28.94688 | 40078 ft | 451 kts | 244° |
| 2026-05-01 13:41 | 35.42365 | -29.01532 | 40079 ft | 451 kts | 244° |
| 2026-05-01 13:41 | 35.39474 | -29.08341 | 40080 ft | 448 kts | 244° |
| 2026-05-01 13:42 | 35.36593 | -29.15116 | 40077 ft | 447 kts | 244° |
| 2026-05-01 13:42 | 35.33711 | -29.21881 | 40075 ft | 447 kts | 244° |
| 2026-05-01 13:43 | 35.30850 | -29.28581 | 40075 ft | 446 kts | 244° |
| 2026-05-01 13:43 | 35.27972 | -29.35308 | 40075 ft | 445 kts | 244° |
| 2026-05-01 13:44 | 35.25097 | -29.42014 | 40071 ft | 444 kts | 244° |
| 2026-05-01 13:44 | 35.22219 | -29.48713 | 40069 ft | 444 kts | 244° |
| 2026-05-01 13:45 | 35.19356 | -29.55365 | 40070 ft | 444 kts | 244° |
| 2026-05-01 13:45 | 35.16472 | -29.62052 | 40067 ft | 444 kts | 244° |
| 2026-05-01 13:46 | 35.13587 | -29.68730 | 40063 ft | 444 kts | 244° |
| 2026-05-01 13:46 | 35.10712 | -29.75368 | 40065 ft | 444 kts | 244° |
| 2026-05-01 13:47 | 35.07823 | -29.82028 | 40062 ft | 444 kts | 244° |
| 2026-05-01 13:47 | 35.04930 | -29.88683 | 40057 ft | 443 kts | 244° |
| 2026-05-01 13:48 | 35.02037 | -29.95325 | 40057 ft | 443 kts | 244° |
| 2026-05-01 13:48 | 34.99515 | -30.02169 | 40062 ft | 441 kts | 252° |
| 2026-05-01 13:49 | 34.97633 | -30.09292 | 40059 ft | 441 kts | 253° |
| 2026-05-01 13:49 | 34.95850 | -30.16440 | 40056 ft | 440 kts | 254° |
| 2026-05-01 13:50 | 34.94087 | -30.23517 | 40054 ft | 439 kts | 254° |
| 2026-05-01 13:50 | 34.92296 | -30.30635 | 40050 ft | 438 kts | 254° |
| 2026-05-01 13:51 | 34.90497 | -30.37737 | 40046 ft | 438 kts | 253° |
| 2026-05-01 13:51 | 34.88692 | -30.44841 | 40044 ft | 438 kts | 253° |
| 2026-05-01 13:52 | 34.86885 | -30.51929 | 40044 ft | 438 kts | 253° |
| 2026-05-01 13:52 | 34.85089 | -30.58962 | 40045 ft | 438 kts | 253° |
| 2026-05-01 13:53 | 34.83276 | -30.66041 | 40041 ft | 438 kts | 253° |
| 2026-05-01 13:53 | 34.80550 | -30.76650 | 40035 ft | 437 kts | 253° |
| 2026-05-01 13:54 | 34.78726 | -30.83722 | 40038 ft | 437 kts | 253° |
| 2026-05-01 13:54 | 34.76914 | -30.90733 | 40035 ft | 437 kts | 253° |
| 2026-05-01 13:55 | 34.75081 | -30.97804 | 40017 ft | 437 kts | 253° |
| 2026-05-01 13:55 | 34.73254 | -31.04832 | 40021 ft | 435 kts | 253° |
| 2026-05-01 13:56 | 34.71424 | -31.11856 | 40033 ft | 435 kts | 253° |
| 2026-05-01 13:56 | 34.69592 | -31.18867 | 40015 ft | 435 kts | 253° |
| 2026-05-01 13:57 | 34.67766 | -31.25836 | 40017 ft | 435 kts | 253° |
| 2026-05-01 13:57 | 34.65923 | -31.32854 | 40016 ft | 435 kts | 253° |
| 2026-05-01 13:58 | 34.64092 | -31.39808 | 40029 ft | 435 kts | 253° |
| 2026-05-01 13:58 | 34.62244 | -31.46807 | 40020 ft | 435 kts | 253° |
| 2026-05-01 13:59 | 34.60389 | -31.53814 | 40019 ft | 435 kts | 253° |
| 2026-05-01 13:59 | 34.58546 | -31.60754 | 40018 ft | 434 kts | 253° |
| 2026-05-01 14:00 | 34.56687 | -31.67743 | 40009 ft | 434 kts | 253° |
| 2026-05-01 14:00 | 34.54825 | -31.74720 | 40007 ft | 434 kts | 253° |
| 2026-05-01 14:01 | 34.52962 | -31.81685 | 40003 ft | 434 kts | 253° |
| 2026-05-01 14:01 | 34.51092 | -31.88661 | 40006 ft | 434 kts | 253° |
| 2026-05-01 14:02 | 34.49219 | -31.95626 | 40006 ft | 435 kts | 253° |
| 2026-05-01 14:02 | 34.47354 | -32.02545 | 39999 ft | 434 kts | 253° |
| 2026-05-01 14:03 | 34.45473 | -32.09506 | 39995 ft | 435 kts | 253° |
| 2026-05-01 14:03 | 34.43585 | -32.16476 | 39991 ft | 435 kts | 253° |
| 2026-05-01 14:04 | 34.41695 | -32.23433 | 39989 ft | 435 kts | 253° |
| 2026-05-01 14:04 | 34.40119 | -32.29223 | 39988 ft | 435 kts | 253° |
| 2026-05-01 14:05 | 34.37912 | -32.37308 | 39982 ft | 435 kts | 253° |
| 2026-05-01 14:05 | 34.36009 | -32.44263 | 39978 ft | 435 kts | 253° |
| 2026-05-01 14:06 | 34.34097 | -32.51232 | 39972 ft | 435 kts | 253° |
| 2026-05-01 14:06 | 34.32200 | -32.58128 | 39977 ft | 435 kts | 252° |
| 2026-05-01 14:07 | 34.30285 | -32.65075 | 39964 ft | 434 kts | 252° |
| 2026-05-01 14:08 | 34.27408 | -32.75475 | 39968 ft | 434 kts | 252° |
| 2026-05-01 14:08 | 34.25498 | -32.82358 | 39965 ft | 434 kts | 252° |
| 2026-05-01 14:09 | 34.23574 | -32.89276 | 39952 ft | 434 kts | 252° |
| 2026-05-01 14:09 | 34.21645 | -32.96193 | 39957 ft | 433 kts | 252° |
| 2026-05-01 14:10 | 34.19729 | -33.03048 | 39956 ft | 433 kts | 252° |
| 2026-05-01 14:10 | 34.17793 | -33.09959 | 39952 ft | 433 kts | 252° |
| 2026-05-01 14:11 | 34.15857 | -33.16849 | 39950 ft | 433 kts | 252° |
| 2026-05-01 14:11 | 34.12959 | -33.27136 | 39949 ft | 433 kts | 252° |
| 2026-05-01 14:12 | 34.11015 | -33.34014 | 39949 ft | 433 kts | 252° |
| 2026-05-01 14:12 | 34.09065 | -33.40897 | 39947 ft | 433 kts | 252° |
| 2026-05-01 14:13 | 34.07442 | -33.46614 | 39945 ft | 433 kts | 252° |
| 2026-05-01 14:13 | 34.05167 | -33.54608 | 39944 ft | 432 kts | 252° |
| 2026-05-01 14:14 | 34.03209 | -33.61467 | 39941 ft | 432 kts | 252° |
| 2026-05-01 14:14 | 34.01248 | -33.68326 | 39941 ft | 432 kts | 252° |
| 2026-05-01 14:15 | 33.99282 | -33.75181 | 39938 ft | 432 kts | 252° |
| 2026-05-01 14:15 | 33.97325 | -33.81991 | 39939 ft | 432 kts | 252° |
| 2026-05-01 14:16 | 33.95352 | -33.88836 | 39939 ft | 432 kts | 252° |
| 2026-05-01 14:16 | 33.93376 | -33.95681 | 39938 ft | 432 kts | 252° |
| 2026-05-01 14:17 | 33.91388 | -34.02548 | 39936 ft | 432 kts | 252° |
| 2026-05-01 14:17 | 33.89417 | -34.09341 | 39935 ft | 433 kts | 252° |
| 2026-05-01 14:18 | 33.87425 | -34.16190 | 39933 ft | 432 kts | 252° |
| 2026-05-01 14:18 | 33.85768 | -34.21873 | 39929 ft | 432 kts | 252° |
| 2026-05-01 14:19 | 33.83449 | -34.29810 | 39933 ft | 432 kts | 252° |
| 2026-05-01 14:19 | 33.81445 | -34.36653 | 39930 ft | 432 kts | 252° |
| 2026-05-01 14:20 | 33.78435 | -34.46899 | 39928 ft | 432 kts | 252° |
| 2026-05-01 14:21 | 33.76441 | -34.53667 | 39927 ft | 432 kts | 252° |
| 2026-05-01 14:21 | 33.74428 | -34.60481 | 39925 ft | 432 kts | 252° |
| 2026-05-01 14:22 | 33.71407 | -34.70683 | 39925 ft | 432 kts | 251° |
| 2026-05-01 14:22 | 33.69383 | -34.77495 | 39924 ft | 432 kts | 251° |
| 2026-05-01 14:23 | 33.67368 | -34.84263 | 39920 ft | 433 kts | 251° |
| 2026-05-01 14:23 | 33.65338 | -34.91067 | 39925 ft | 433 kts | 251° |
| 2026-05-01 14:24 | 33.63304 | -34.97868 | 39928 ft | 433 kts | 251° |
| 2026-05-01 14:24 | 33.61278 | -35.04625 | 39921 ft | 432 kts | 251° |
| 2026-05-01 14:25 | 33.59581 | -35.10274 | 39919 ft | 432 kts | 251° |
| 2026-05-01 14:25 | 33.57195 | -35.18197 | 39919 ft | 432 kts | 251° |
| 2026-05-01 14:26 | 33.54469 | -35.27226 | 39920 ft | 432 kts | 251° |
| 2026-05-01 14:27 | 33.52415 | -35.34009 | 39916 ft | 432 kts | 251° |
| 2026-05-01 14:27 | 33.50362 | -35.40774 | 39919 ft | 432 kts | 251° |
| 2026-05-01 14:28 | 33.47270 | -35.50934 | 39920 ft | 432 kts | 251° |
| 2026-05-01 14:28 | 33.45208 | -35.57692 | 39920 ft | 432 kts | 251° |
| 2026-05-01 14:29 | 33.43153 | -35.64409 | 39910 ft | 432 kts | 251° |
| 2026-05-01 14:30 | 33.38997 | -35.77953 | 39910 ft | 432 kts | 251° |
| 2026-05-01 14:31 | 33.35887 | -35.88046 | 39912 ft | 432 kts | 251° |
| 2026-05-01 14:31 | 33.33800 | -35.94801 | 39915 ft | 432 kts | 251° |
| 2026-05-01 14:32 | 33.31711 | -36.01548 | 39904 ft | 432 kts | 251° |
| 2026-05-01 14:32 | 33.29630 | -36.08255 | 39916 ft | 433 kts | 251° |
| 2026-05-01 14:33 | 33.27531 | -36.15004 | 39912 ft | 433 kts | 251° |
| 2026-05-01 14:33 | 33.25425 | -36.21758 | 39912 ft | 433 kts | 251° |
| 2026-05-01 14:34 | 33.23318 | -36.28503 | 39908 ft | 433 kts | 251° |
| 2026-05-01 14:34 | 33.21204 | -36.35253 | 39921 ft | 433 kts | 251° |
| 2026-05-01 14:35 | 33.19106 | -36.41941 | 39907 ft | 433 kts | 251° |
| 2026-05-01 14:35 | 33.16986 | -36.48683 | 39910 ft | 433 kts | 251° |
| 2026-05-01 14:36 | 33.14860 | -36.55428 | 39910 ft | 433 kts | 251° |
| 2026-05-01 14:36 | 33.12729 | -36.62173 | 39912 ft | 434 kts | 251° |
| 2026-05-01 14:37 | 33.10593 | -36.68922 | 39916 ft | 434 kts | 251° |
| 2026-05-01 14:37 | 33.08470 | -36.75615 | 39903 ft | 434 kts | 251° |
| 2026-05-01 14:38 | 33.06327 | -36.82353 | 39914 ft | 434 kts | 251° |
| 2026-05-01 14:38 | 33.04195 | -36.89046 | 39916 ft | 434 kts | 251° |
| 2026-05-01 14:39 | 33.02050 | -36.95765 | 39918 ft | 434 kts | 251° |
| 2026-05-01 14:39 | 32.99897 | -37.02495 | 39913 ft | 435 kts | 250° |
| 2026-05-01 14:40 | 32.97736 | -37.09232 | 39910 ft | 435 kts | 250° |
| 2026-05-01 14:40 | 32.95581 | -37.15936 | 39909 ft | 435 kts | 250° |
| 2026-05-01 14:41 | 32.93412 | -37.22671 | 39906 ft | 435 kts | 250° |
| 2026-05-01 14:41 | 32.91236 | -37.29411 | 39906 ft | 435 kts | 250° |
| 2026-05-01 14:42 | 32.89069 | -37.36111 | 39906 ft | 435 kts | 250° |
| 2026-05-01 14:42 | 32.86888 | -37.42839 | 39908 ft | 435 kts | 250° |
| 2026-05-01 14:43 | 32.84712 | -37.49538 | 39899 ft | 435 kts | 250° |
| 2026-05-01 14:43 | 32.82523 | -37.56262 | 39907 ft | 436 kts | 250° |
| 2026-05-01 14:44 | 32.80328 | -37.62990 | 39906 ft | 436 kts | 250° |
| 2026-05-01 14:44 | 32.77042 | -37.73036 | 39904 ft | 435 kts | 250° |
| 2026-05-01 14:45 | 32.73749 | -37.83069 | 39891 ft | 436 kts | 250° |
| 2026-05-01 14:46 | 32.71539 | -37.89788 | 39907 ft | 436 kts | 250° |
| 2026-05-01 14:46 | 32.68220 | -37.99848 | 39907 ft | 436 kts | 250° |
| 2026-05-01 14:47 | 32.66011 | -38.06528 | 39901 ft | 436 kts | 250° |
| 2026-05-01 14:48 | 32.62672 | -38.16596 | 39904 ft | 436 kts | 250° |
| 2026-05-01 14:48 | 32.59342 | -38.26603 | 39897 ft | 436 kts | 250° |
| 2026-05-01 14:49 | 32.54871 | -38.39994 | 39894 ft | 436 kts | 250° |
| 2026-05-01 14:50 | 32.50387 | -38.53369 | 39898 ft | 436 kts | 250° |
| 2026-05-01 14:51 | 32.47026 | -38.63358 | 39898 ft | 436 kts | 250° |
| 2026-05-01 14:52 | 32.43658 | -38.73336 | 39898 ft | 436 kts | 250° |
| 2026-05-01 14:53 | 32.40271 | -38.83339 | 39895 ft | 436 kts | 250° |
| 2026-05-01 14:53 | 32.38011 | -38.89998 | 39897 ft | 436 kts | 250° |
| 2026-05-01 14:54 | 32.35743 | -38.96665 | 39895 ft | 436 kts | 250° |
| 2026-05-01 14:54 | 32.33487 | -39.03283 | 39894 ft | 436 kts | 250° |
| 2026-05-01 14:55 | 32.31212 | -39.09944 | 39894 ft | 436 kts | 250° |
| 2026-05-01 14:55 | 32.28936 | -39.16594 | 39891 ft | 436 kts | 250° |
| 2026-05-01 14:56 | 32.26672 | -39.23196 | 39898 ft | 435 kts | 250° |
| 2026-05-01 14:56 | 32.24393 | -39.29830 | 39897 ft | 435 kts | 250° |
| 2026-05-01 14:57 | 32.22104 | -39.36477 | 39889 ft | 435 kts | 250° |
| 2026-05-01 14:57 | 32.18688 | -39.46374 | 39892 ft | 435 kts | 250° |
| 2026-05-01 14:58 | 32.16411 | -39.52956 | 39895 ft | 435 kts | 250° |
| 2026-05-01 14:58 | 32.14116 | -39.59574 | 39892 ft | 435 kts | 250° |
| 2026-05-01 14:59 | 32.11830 | -39.66153 | 39895 ft | 435 kts | 250° |
| 2026-05-01 14:59 | 32.09530 | -39.72760 | 39892 ft | 435 kts | 250° |
| 2026-05-01 15:00 | 32.06076 | -39.82655 | 39890 ft | 434 kts | 250° |
| 2026-05-01 15:01 | 32.03786 | -39.89202 | 39893 ft | 434 kts | 250° |
| 2026-05-01 15:01 | 32.01481 | -39.95776 | 39898 ft | 434 kts | 250° |
| 2026-05-01 15:02 | 31.99162 | -40.02361 | 39895 ft | 434 kts | 249° |
| 2026-05-01 15:02 | 31.96739 | -40.08874 | 39894 ft | 434 kts | 248° |
| 2026-05-01 15:03 | 31.94276 | -40.15373 | 39895 ft | 434 kts | 249° |
| 2026-05-01 15:03 | 31.91840 | -40.21833 | 39894 ft | 434 kts | 249° |
| 2026-05-01 15:04 | 31.89394 | -40.28342 | 39893 ft | 434 kts | 249° |
| 2026-05-01 15:04 | 31.86958 | -40.34826 | 39892 ft | 434 kts | 249° |
| 2026-05-01 15:05 | 31.84513 | -40.41322 | 39889 ft | 434 kts | 249° |
| 2026-05-01 15:05 | 31.82066 | -40.47808 | 39883 ft | 434 kts | 249° |
| 2026-05-01 15:06 | 31.79629 | -40.54252 | 39895 ft | 434 kts | 249° |
| 2026-05-01 15:06 | 31.77174 | -40.60735 | 39895 ft | 434 kts | 249° |
| 2026-05-01 15:07 | 31.74711 | -40.67225 | 39892 ft | 434 kts | 249° |
| 2026-05-01 15:07 | 31.72263 | -40.73664 | 39891 ft | 433 kts | 249° |
| 2026-05-01 15:08 | 31.69795 | -40.80142 | 39892 ft | 433 kts | 249° |
| 2026-05-01 15:08 | 31.67345 | -40.86564 | 39895 ft | 433 kts | 249° |
| 2026-05-01 15:09 | 31.64875 | -40.93025 | 39884 ft | 433 kts | 249° |
| 2026-05-01 15:09 | 31.62417 | -40.99442 | 39892 ft | 433 kts | 249° |
| 2026-05-01 15:10 | 31.59940 | -41.05899 | 39893 ft | 433 kts | 249° |
| 2026-05-01 15:10 | 31.56224 | -41.15561 | 39895 ft | 433 kts | 249° |
| 2026-05-01 15:11 | 31.52917 | -41.24137 | 39895 ft | 433 kts | 249° |
| 2026-05-01 15:12 | 31.50027 | -41.31617 | 39895 ft | 433 kts | 249° |
| 2026-05-01 15:12 | 31.46710 | -41.40180 | 39890 ft | 433 kts | 249° |
| 2026-05-01 15:14 | 31.40486 | -41.56193 | 39894 ft | 433 kts | 249° |
| 2026-05-01 15:14 | 31.36735 | -41.65808 | 39897 ft | 433 kts | 249° |
| 2026-05-01 15:15 | 31.31718 | -41.78627 | 39890 ft | 433 kts | 249° |
| 2026-05-01 15:16 | 31.26703 | -41.91396 | 39893 ft | 433 kts | 249° |
| 2026-05-01 15:18 | 31.20403 | -42.07373 | 39894 ft | 433 kts | 249° |
| 2026-05-01 15:19 | 31.15352 | -42.20131 | 39880 ft | 433 kts | 249° |
| 2026-05-01 15:19 | 31.11557 | -42.29686 | 39886 ft | 433 kts | 249° |
| 2026-05-01 15:20 | 31.07768 | -42.39203 | 39887 ft | 433 kts | 249° |
| 2026-05-01 15:21 | 31.05226 | -42.45570 | 39894 ft | 433 kts | 249° |
| 2026-05-01 15:21 | 31.02686 | -42.51926 | 39898 ft | 433 kts | 249° |
| 2026-05-01 15:22 | 30.98877 | -42.61433 | 39891 ft | 433 kts | 249° |
| 2026-05-01 15:22 | 30.96328 | -42.67781 | 39898 ft | 433 kts | 249° |
| 2026-05-01 15:23 | 30.93770 | -42.74139 | 39890 ft | 433 kts | 249° |
| 2026-05-01 15:23 | 30.91214 | -42.80484 | 39894 ft | 433 kts | 249° |
| 2026-05-01 15:24 | 30.88649 | -42.86837 | 39896 ft | 432 kts | 249° |
| 2026-05-01 15:24 | 30.86104 | -42.93131 | 39897 ft | 432 kts | 249° |
| 2026-05-01 15:25 | 30.83534 | -42.99475 | 39898 ft | 432 kts | 249° |
| 2026-05-01 15:25 | 30.80963 | -43.05811 | 39895 ft | 432 kts | 250° |
| 2026-05-01 15:26 | 30.78413 | -43.12085 | 39900 ft | 431 kts | 250° |
| 2026-05-01 15:26 | 30.75847 | -43.18388 | 39900 ft | 431 kts | 250° |
| 2026-05-01 15:27 | 30.73273 | -43.24699 | 39900 ft | 431 kts | 249° |
| 2026-05-01 15:28 | 30.69424 | -43.34117 | 39901 ft | 431 kts | 249° |
| 2026-05-01 15:28 | 30.66845 | -43.40412 | 39903 ft | 431 kts | 249° |
| 2026-05-01 15:29 | 30.62973 | -43.49843 | 39902 ft | 431 kts | 250° |
| 2026-05-01 15:30 | 30.57806 | -43.62396 | 39911 ft | 431 kts | 250° |
| 2026-05-01 15:31 | 30.50051 | -43.81152 | 39911 ft | 430 kts | 249° |
| 2026-05-01 15:32 | 30.44878 | -43.93610 | 39909 ft | 429 kts | 249° |
| 2026-05-01 15:34 | 30.37109 | -44.12244 | 39912 ft | 427 kts | 249° |